地図

経路データ

SID SEASON NUMBER BASIN SUBBASIN NAME ISO_TIME NATURE LAT LON WMO_WIND WMO_PRES WMO_AGENCY TRACK_TYPE DIST2LAND LANDFALL IFLAG USA_AGENCY USA_ATCF_ID USA_LAT USA_LON USA_RECORD USA_STATUS USA_WIND USA_PRES USA_SSHS USA_R34_NE USA_R34_SE USA_R34_SW USA_R34_NW USA_R50_NE USA_R50_SE USA_R50_SW USA_R50_NW USA_R64_NE USA_R64_SE USA_R64_SW USA_R64_NW USA_POCI USA_ROCI USA_RMW USA_EYE TOKYO_LAT TOKYO_LON TOKYO_GRADE TOKYO_WIND TOKYO_PRES TOKYO_R50_DIR TOKYO_R50_LONG TOKYO_R50_SHORT TOKYO_R30_DIR TOKYO_R30_LONG TOKYO_R30_SHORT TOKYO_LAND CMA_LAT CMA_LON CMA_CAT CMA_WIND CMA_PRES HKO_LAT HKO_LON HKO_CAT HKO_WIND HKO_PRES NEWDELHI_LAT NEWDELHI_LON NEWDELHI_GRADE NEWDELHI_WIND NEWDELHI_PRES NEWDELHI_CI NEWDELHI_DP NEWDELHI_POCI REUNION_LAT REUNION_LON REUNION_TYPE REUNION_WIND REUNION_PRES REUNION_TNUM REUNION_CI REUNION_RMW REUNION_R34_NE REUNION_R34_SE REUNION_R34_SW REUNION_R34_NW REUNION_R50_NE REUNION_R50_SE REUNION_R50_SW REUNION_R50_NW REUNION_R64_NE REUNION_R64_SE REUNION_R64_SW REUNION_R64_NW BOM_LAT BOM_LON BOM_TYPE BOM_WIND BOM_PRES BOM_TNUM BOM_CI BOM_RMW BOM_R34_NE BOM_R34_SE BOM_R34_SW BOM_R34_NW BOM_R50_NE BOM_R50_SE BOM_R50_SW BOM_R50_NW BOM_R64_NE BOM_R64_SE BOM_R64_SW BOM_R64_NW BOM_ROCI BOM_POCI BOM_EYE BOM_POS_METHOD BOM_PRES_METHOD NADI_LAT NADI_LON NADI_CAT NADI_WIND NADI_PRES WELLINGTON_LAT WELLINGTON_LON WELLINGTON_WIND WELLINGTON_PRES DS824_LAT DS824_LON DS824_STAGE DS824_WIND DS824_PRES TD9636_LAT TD9636_LON TD9636_STAGE TD9636_WIND TD9636_PRES TD9635_LAT TD9635_LON TD9635_WIND TD9635_PRES TD9635_ROCI NEUMANN_LAT NEUMANN_LON NEUMANN_CLASS NEUMANN_WIND NEUMANN_PRES MLC_LAT MLC_LON MLC_CLASS MLC_WIND MLC_PRES USA_GUST BOM_GUST BOM_GUST_PER REUNION_GUST REUNION_GUST_PER USA_SEAHGT USA_SEARAD_NE USA_SEARAD_SE USA_SEARAD_SW USA_SEARAD_NW STORM_SPEED STORM_DIR
1885131S13066 1885 21 SI MM NOT_NAMED 1885-05-11 06:00:00 NR -13.2000 66.2000 reunion main 1189 1174 _____O________ -1 -13.2000 66.2000 99 9.90000 3 216
1885131S13066 1885 21 SI MM NOT_NAMED 1885-05-11 09:00:00 NR -13.3361 66.0993 main 1174 1151 _____P________ -1 -13.3361 66.0993 99 3 216
1885131S13066 1885 21 SI MM NOT_NAMED 1885-05-11 12:00:00 NR -13.4736 65.9986 main 1151 1135 _____P________ -1 -13.4736 65.9986 99 3 215
1885131S13066 1885 21 SI MM NOT_NAMED 1885-05-11 15:00:00 NR -13.6136 65.8980 main 1135 1120 _____P________ -1 -13.6136 65.8980 99 3 215
1885131S13066 1885 21 SI MM NOT_NAMED 1885-05-11 18:00:00 NR -13.7576 65.7976 main 1112 1097 _____P________ -1 -13.7576 65.7976 99 4 213
1885131S13066 1885 21 SI MM NOT_NAMED 1885-05-11 21:00:00 NR -13.9069 65.6975 main 1097 1074 _____P________ -1 -13.9069 65.6975 99 4 213
1885131S13066 1885 21 SI MM NOT_NAMED 1885-05-12 00:00:00 NR -14.0629 65.5978 main 1074 1059 _____P________ -1 -14.0629 65.5978 99 4 211
1885131S13066 1885 21 SI MM NOT_NAMED 1885-05-12 03:00:00 NR -14.2268 65.4986 main 1059 1036 _____P________ -1 -14.2268 65.4986 99 4 210
1885131S13066 1885 21 SI MM NOT_NAMED 1885-05-12 06:00:00 NR -14.4000 65.4000 reunion main 1036 1014 _____O________ -1 -14.4000 65.4000 99 9.90000 4 208
1885131S13066 1885 21 SI MM NOT_NAMED 1885-05-12 09:00:00 NR -14.5831 65.3022 main 1014 992 _____P________ -1 -14.5831 65.3022 99 4 207
1885131S13066 1885 21 SI MM NOT_NAMED 1885-05-12 12:00:00 NR -14.7737 65.2057 main 992 969 _____P________ -1 -14.7737 65.2057 99 4 206
1885131S13066 1885 21 SI MM NOT_NAMED 1885-05-12 15:00:00 NR -14.9687 65.1115 main 969 947 _____P________ -1 -14.9687 65.1115 99 4 205
1885131S13066 1885 21 SI MM NOT_NAMED 1885-05-12 18:00:00 NR -15.1650 65.0202 main 947 932 _____P________ -1 -15.1650 65.0202 99 4 204
1885131S13066 1885 21 SI MM NOT_NAMED 1885-05-12 21:00:00 NR -15.3594 64.9326 main 926 919 _____P________ -1 -15.3594 64.9326 99 4 203
1885131S13066 1885 21 SI MM NOT_NAMED 1885-05-13 00:00:00 NR -15.5488 64.8495 main 910 898 _____P________ -1 -15.5488 64.8495 99 4 203
1885131S13066 1885 21 SI MM NOT_NAMED 1885-05-13 03:00:00 NR -15.7300 64.7717 main 898 876 _____P________ -1 -15.7300 64.7717 99 4 202
1885131S13066 1885 21 SI MM NOT_NAMED 1885-05-13 06:00:00 NR -15.9000 64.7000 reunion main 876 861 _____O________ -1 -15.9000 64.7000 99 9.90000 3 204
1885131S13066 1885 21 SI MM NOT_NAMED 1885-05-13 09:00:00 NR -16.0482 64.6302 main 861 849 _____P________ -1 -16.0482 64.6302 99 3 204
1885131S13066 1885 21 SI MM NOT_NAMED 1885-05-13 12:00:00 NR -16.1859 64.5660 main 849 834 _____P________ -1 -16.1859 64.5660 99 3 203
1885131S13066 1885 21 SI MM NOT_NAMED 1885-05-13 15:00:00 NR -16.3150 64.5076 main 834 828 _____P________ -1 -16.3150 64.5076 99 3 202
1885131S13066 1885 21 SI MM NOT_NAMED 1885-05-13 18:00:00 NR -16.4374 64.4548 main 828 813 _____P________ -1 -16.4374 64.4548 99 3 202
1885131S13066 1885 21 SI MM NOT_NAMED 1885-05-13 21:00:00 NR -16.5552 64.4076 main 808 802 _____P________ -1 -16.5552 64.4076 99 2 201
1885131S13066 1885 21 SI MM NOT_NAMED 1885-05-14 00:00:00 NR -16.6703 64.3661 main 802 787 _____P________ -1 -16.6703 64.3661 99 2 200
1885131S13066 1885 21 SI MM NOT_NAMED 1885-05-14 03:00:00 NR -16.7845 64.3303 main 787 782 _____P________ -1 -16.7845 64.3303 99 2 197
1885131S13066 1885 21 SI MM NOT_NAMED 1885-05-14 06:00:00 NR -16.9000 64.3000 reunion main 782 777 _____O________ -1 -16.9000 64.3000 99 9.90000 2 196
1885131S13066 1885 21 SI MM NOT_NAMED 1885-05-14 09:00:00 NR -16.9963 64.2678 main 777 762 _____P________ -1 -16.9963 64.2678 99 2 197
1885131S13066 1885 21 SI MM NOT_NAMED 1885-05-14 12:00:00 NR -17.0891 64.2413 main 762 757 _____P________ -1 -17.0891 64.2413 99 2 194
1885131S13066 1885 21 SI MM NOT_NAMED 1885-05-14 15:00:00 NR -17.1842 64.2204 main 757 752 _____P________ -1 -17.1842 64.2204 99 2 190
1885131S13066 1885 21 SI MM NOT_NAMED 1885-05-14 18:00:00 NR -17.2875 64.2051 main 752 747 _____P________ -1 -17.2875 64.2051 99 2 0
1885131S13066 1885 21 SI MM NOT_NAMED 1885-05-14 21:00:00 NR -17.4049 64.1955 main 747 742 _____P________ -1 -17.4049 64.1955 99 3 0
1885131S13066 1885 21 SI MM NOT_NAMED 1885-05-15 00:00:00 NR -17.5422 64.1914 main 742 732 _____P________ -1 -17.5422 64.1914 99 3 185
1885131S13066 1885 21 SI MM NOT_NAMED 1885-05-15 03:00:00 NR -17.7053 64.1929 main 732 724 _____P________ -1 -17.7053 64.1929 99 4 177
1885131S13066 1885 21 SI MM NOT_NAMED 1885-05-15 06:00:00 NR -17.9000 64.2000 reunion main 724 715 _____O________ -1 -17.9000 64.2000 99 9.90000 5 181
1885131S13066 1885 21 SI MM NOT_NAMED 1885-05-15 09:00:00 NR -18.1580 64.1922 main 711 704 _____P________ -1 -18.1580 64.1922 99 6 181
1885131S13066 1885 21 SI MM NOT_NAMED 1885-05-15 12:00:00 NR -18.4495 64.1885 main 704 694 _____P________ -1 -18.4495 64.1885 99 6 181
1885131S13066 1885 21 SI MM NOT_NAMED 1885-05-15 15:00:00 NR -18.7656 64.1913 main 691 683 _____P________ -1 -18.7656 64.1913 99 7 0
1885131S13066 1885 21 SI MM NOT_NAMED 1885-05-15 18:00:00 NR -19.0972 64.2035 main 683 676 _____P________ -1 -19.0972 64.2035 99 7 176
1885131S13066 1885 21 SI MM NOT_NAMED 1885-05-15 21:00:00 NR -19.4355 64.2278 main 676 673 _____P________ -1 -19.4355 64.2278 99 7 176
1885131S13066 1885 21 SI MM NOT_NAMED 1885-05-16 00:00:00 NR -19.7713 64.2667 main 681 678 _____P________ -1 -19.7713 64.2667 99 7 172
1885131S13066 1885 21 SI MM NOT_NAMED 1885-05-16 03:00:00 NR -20.0958 64.3232 main 678 678 _____P________ -1 -20.0958 64.3232 99 6 169
1885131S13066 1885 21 SI MM NOT_NAMED 1885-05-16 06:00:00 NR -20.4000 64.4000 reunion main 688 688 _____O________ -1 -20.4000 64.4000 99 9.90000 6 164
1885131S13066 1885 21 SI MM NOT_NAMED 1885-05-16 09:00:00 NR -20.6554 64.4976 main 699 699 _____P________ -1 -20.6554 64.4976 99 5 158
1885131S13066 1885 21 SI MM NOT_NAMED 1885-05-16 12:00:00 NR -20.8947 64.6157 main 710 710 _____P________ -1 -20.8947 64.6157 99 5 153
1885131S13066 1885 21 SI MM NOT_NAMED 1885-05-16 15:00:00 NR -21.1197 64.7515 main 733 733 _____P________ -1 -21.1197 64.7515 99 5 149
1885131S13066 1885 21 SI MM NOT_NAMED 1885-05-16 18:00:00 NR -21.3325 64.9023 main 746 746 _____P________ -1 -21.3325 64.9023 99 5 145
1885131S13066 1885 21 SI MM NOT_NAMED 1885-05-16 21:00:00 NR -21.5349 65.0653 main 769 769 _____P________ -1 -21.5349 65.0653 99 5 142
1885131S13066 1885 21 SI MM NOT_NAMED 1885-05-17 00:00:00 NR -21.7290 65.2378 main 783 783 _____P________ -1 -21.7290 65.2378 99 5 140
1885131S13066 1885 21 SI MM NOT_NAMED 1885-05-17 03:00:00 NR -21.9167 65.4170 main 808 808 _____P________ -1 -21.9167 65.4170 99 5 138
1885131S13066 1885 21 SI MM NOT_NAMED 1885-05-17 06:00:00 NR -22.1000 65.6000 reunion main 833 833 _____O________ -1 -22.1000 65.6000 99 9.90000 5 137
1885131S13066 1885 21 SI MM NOT_NAMED 1885-05-17 09:00:00 NR -22.2806 65.7845 main 858 858 _____P________ -1 -22.2806 65.7845 99 5 136
1885131S13066 1885 21 SI MM NOT_NAMED 1885-05-17 12:00:00 NR -22.4590 65.9701 main 883 883 _____P________ -1 -22.4590 65.9701 99 5 136
1885131S13066 1885 21 SI MM NOT_NAMED 1885-05-17 15:00:00 NR -22.6356 66.1565 main 906 906 _____P________ -1 -22.6356 66.1565 99 5 136
1885131S13066 1885 21 SI MM NOT_NAMED 1885-05-17 18:00:00 NR -22.8106 66.3438 main 922 922 _____P________ -1 -22.8106 66.3438 99 5 135
1885131S13066 1885 21 SI MM NOT_NAMED 1885-05-17 21:00:00 NR -22.9843 66.5319 main 948 948 _____P________ -1 -22.9843 66.5319 99 5 135
1885131S13066 1885 21 SI MM NOT_NAMED 1885-05-18 00:00:00 NR -23.1569 66.7206 main 974 974 _____P________ -1 -23.1569 66.7206 99 5 135
1885131S13066 1885 21 SI MM NOT_NAMED 1885-05-18 03:00:00 NR -23.3287 66.9100 main 997 997 _____P________ -1 -23.3287 66.9100 99 5 135
1885131S13066 1885 21 SI MM NOT_NAMED 1885-05-18 06:00:00 NR -23.5000 67.1000 reunion main 1023 _____O________ -1 -23.5000 67.1000 99 9.90000 5 135

IBTrACS Databaseについて

本データベースは、米国NOAAが公開する1842年以降の世界の熱帯低気圧のベストトラックデータアーカイブInternational Best Track Archive for Climate Stewardship (IBTrACS)を、ウェブで閲覧しやすい形式に変換したものです。

最終更新日:2021-11-26